createdAt,value
2022-12-09T00:00:12.949Z,2.42
2022-12-09T00:02:40.884Z,2.37
2022-12-09T00:05:08.576Z,2.36
2022-12-09T00:07:36.564Z,2.34
2022-12-09T00:10:05.432Z,2.39
2022-12-09T00:12:32.925Z,2.38
2022-12-09T00:15:00.137Z,2.35
2022-12-09T00:17:27.592Z,2.33
2022-12-09T00:19:54.798Z,2.29
2022-12-09T00:22:21.934Z,2.29
2022-12-09T00:24:49.334Z,2.36
2022-12-09T00:27:16.590Z,2.45
2022-12-09T00:29:44.184Z,2.37
2022-12-09T00:32:11.550Z,2.46
2022-12-09T00:34:38.564Z,2.49
2022-12-09T00:37:06.093Z,2.41
2022-12-09T00:39:33.664Z,2.35
2022-12-09T00:42:00.965Z,2.51
2022-12-09T00:44:28.544Z,2.53
2022-12-09T00:46:56.054Z,2.43
2022-12-09T00:49:23.300Z,2.35
2022-12-09T00:51:50.432Z,2.34
2022-12-09T00:54:17.849Z,2.25
2022-12-09T00:56:45.269Z,2.34
2022-12-09T00:59:12.492Z,2.32
2022-12-09T01:01:39.888Z,2.37
2022-12-09T01:04:10.372Z,2.27
2022-12-09T01:06:37.455Z,2.34
2022-12-09T01:09:05.211Z,2.40
2022-12-09T01:11:32.576Z,2.34
2022-12-09T01:14:03.096Z,2.35
2022-12-09T01:16:33.636Z,2.36
2022-12-09T01:19:04.287Z,2.43
2022-12-09T01:21:32.607Z,2.35
2022-12-09T01:24:00.246Z,2.31
2022-12-09T01:26:28.610Z,2.45
2022-12-09T01:28:57.626Z,2.46
2022-12-09T01:31:25.829Z,2.38
2022-12-09T01:33:56.158Z,2.31
2022-12-09T01:36:27.859Z,2.35
2022-12-09T01:38:59.099Z,2.38
2022-12-09T01:41:28.030Z,2.39
2022-12-09T01:44:23.779Z,2.49
2022-12-09T01:46:56.125Z,2.55
2022-12-09T01:49:39.127Z,2.46
2022-12-09T01:52:14.169Z,2.42
2022-12-09T01:54:45.958Z,2.41
2022-12-09T01:57:15.213Z,2.39
2022-12-09T01:59:44.333Z,2.34
2022-12-09T02:02:18.251Z,2.37
2022-12-09T02:04:49.158Z,2.31
2022-12-09T02:07:19.266Z,2.42
2022-12-09T02:09:47.776Z,2.44
2022-12-09T02:12:22.166Z,2.47
2022-12-09T02:15:26.112Z,2.42
2022-12-09T02:18:12.584Z,2.40
2022-12-09T02:20:54.850Z,2.39
2022-12-09T02:23:33.950Z,2.46
2022-12-09T02:26:19.649Z,2.52
2022-12-09T02:29:25.502Z,2.66
2022-12-09T02:32:19.940Z,2.61
2022-12-09T02:34:58.644Z,2.64
2022-12-09T02:37:36.908Z,2.60
2022-12-09T02:40:34.057Z,2.68
2022-12-09T02:43:03.358Z,2.61
2022-12-09T02:45:32.287Z,2.49
2022-12-09T02:48:03.902Z,2.66
2022-12-09T02:50:36.729Z,2.64
2022-12-09T02:53:09.273Z,2.58
2022-12-09T02:55:39.056Z,2.54
2022-12-09T02:58:06.111Z,2.68
2022-12-09T03:00:34.125Z,2.63
2022-12-09T03:03:03.873Z,2.64
2022-12-09T03:05:57.691Z,2.82
2022-12-09T03:08:59.011Z,2.84
2022-12-09T03:11:27.875Z,2.70
2022-12-09T03:14:07.181Z,2.72
2022-12-09T03:16:43.563Z,2.66
2022-12-09T03:19:23.175Z,2.60
2022-12-09T03:21:56.771Z,2.52
2022-12-09T03:24:51.008Z,2.49
2022-12-09T03:27:28.471Z,2.55
2022-12-09T03:29:57.412Z,2.46
2022-12-09T03:32:28.456Z,2.49
2022-12-09T03:35:05.369Z,2.46
2022-12-09T03:37:34.400Z,2.48
2022-12-09T03:40:09.978Z,2.59
2022-12-09T03:42:47.977Z,2.62
2022-12-09T03:45:17.870Z,2.67
2022-12-09T03:47:45.269Z,2.70
2022-12-09T03:50:14.410Z,2.66
2022-12-09T03:52:57.205Z,2.71
2022-12-09T03:56:03.099Z,2.68
2022-12-09T03:58:34.620Z,2.57
2022-12-09T04:01:02.971Z,2.58
2022-12-09T04:03:32.933Z,2.61
2022-12-09T04:06:00.146Z,2.65
2022-12-09T04:08:27.223Z,2.71
2022-12-09T04:10:54.683Z,2.77
2022-12-09T04:13:21.713Z,2.65
2022-12-09T04:15:48.976Z,2.59
2022-12-09T04:18:16.383Z,2.53
2022-12-09T04:20:43.537Z,2.62
2022-12-09T04:23:10.623Z,2.66
2022-12-09T04:25:38.329Z,2.63
2022-12-09T04:28:05.617Z,2.68
2022-12-09T04:30:32.687Z,2.61
2022-12-09T04:33:00.886Z,2.58
2022-12-09T04:35:28.296Z,2.58
2022-12-09T04:37:55.946Z,2.62
2022-12-09T04:40:24.650Z,2.66
2022-12-09T04:42:52.110Z,2.66
2022-12-09T04:45:19.150Z,2.65
2022-12-09T04:47:46.645Z,2.83
2022-12-09T04:50:14.293Z,2.92
2022-12-09T04:52:41.667Z,2.92
2022-12-09T04:55:09.947Z,2.81
2022-12-09T04:57:37.079Z,2.84
2022-12-09T05:00:06.627Z,2.82
2022-12-09T05:02:34.957Z,2.88
2022-12-09T05:05:02.979Z,2.89
2022-12-09T05:07:31.537Z,2.90
2022-12-09T05:09:59.670Z,2.90
2022-12-09T05:12:27.044Z,2.77
2022-12-09T05:14:54.126Z,2.82
2022-12-09T05:17:21.844Z,2.87
2022-12-09T05:19:49.169Z,2.92
2022-12-09T05:22:17.856Z,3.01
2022-12-09T05:24:47.470Z,3.00
2022-12-09T05:27:15.578Z,3.01
2022-12-09T05:29:42.666Z,2.88
2022-12-09T05:32:10.528Z,2.85
2022-12-09T05:34:39.558Z,2.77
2022-12-09T05:37:08.281Z,2.81
2022-12-09T05:39:35.761Z,2.94
2022-12-09T05:42:03.140Z,2.96
2022-12-09T05:44:30.739Z,2.85
2022-12-09T05:46:58.283Z,2.93
2022-12-09T05:49:25.593Z,2.86
2022-12-09T05:51:54.318Z,2.84
2022-12-09T05:54:21.749Z,2.91
2022-12-09T05:56:49.146Z,2.93
2022-12-09T05:59:16.329Z,2.90
2022-12-09T06:01:44.016Z,2.88
2022-12-09T06:04:11.673Z,2.97
2022-12-09T06:06:39.284Z,2.91
2022-12-09T06:09:11.573Z,2.78
2022-12-09T06:11:40.443Z,2.90
2022-12-09T06:14:08.942Z,2.86
2022-12-09T06:16:36.553Z,2.91
2022-12-09T06:19:05.154Z,2.92
2022-12-09T06:21:32.321Z,3.05
2022-12-09T06:23:59.434Z,3.18
2022-12-09T06:26:29.869Z,3.20
2022-12-09T06:28:57.725Z,3.09
2022-12-09T06:31:25.896Z,3.02
2022-12-09T06:33:56.463Z,3.01
2022-12-09T06:36:25.980Z,3.04
2022-12-09T06:38:54.631Z,3.05
2022-12-09T06:41:21.945Z,3.04
2022-12-09T06:43:49.523Z,3.11
2022-12-09T06:46:19.833Z,3.15
2022-12-09T06:48:47.544Z,3.17
2022-12-09T06:51:16.471Z,3.18
2022-12-09T06:53:44.879Z,3.09
2022-12-09T06:56:13.561Z,3.21
2022-12-09T06:58:43.047Z,3.20
2022-12-09T07:01:16.497Z,3.14
2022-12-09T07:03:46.094Z,3.10
2022-12-09T07:06:39.219Z,3.13
2022-12-09T07:09:15.595Z,3.17
2022-12-09T07:11:46.287Z,3.18
2022-12-09T07:14:15.618Z,3.25
2022-12-09T07:16:43.964Z,3.24
2022-12-09T07:19:20.082Z,3.27
2022-12-09T07:21:48.783Z,3.30
2022-12-09T07:24:16.252Z,3.31
2022-12-09T07:26:44.020Z,3.32
2022-12-09T07:29:11.661Z,3.31
2022-12-09T07:31:39.030Z,3.34
2022-12-09T07:34:06.779Z,3.38
2022-12-09T07:36:35.858Z,3.38
2022-12-09T07:39:06.964Z,3.44
2022-12-09T07:41:34.711Z,3.52
2022-12-09T07:44:02.026Z,3.61
2022-12-09T07:46:29.763Z,3.51
2022-12-09T07:48:58.492Z,3.57
2022-12-09T07:51:26.682Z,3.57
2022-12-09T07:53:54.312Z,3.51
2022-12-09T07:56:24.043Z,3.43
2022-12-09T07:58:53.674Z,3.48
2022-12-09T08:01:25.339Z,3.57
2022-12-09T08:03:53.682Z,3.62
2022-12-09T08:06:24.458Z,3.71
2022-12-09T08:08:52.145Z,3.68
2022-12-09T08:11:25.424Z,3.72
2022-12-09T08:13:53.940Z,3.85
2022-12-09T08:16:23.048Z,3.80
2022-12-09T08:18:53.718Z,3.76
2022-12-09T08:21:32.632Z,3.79
2022-12-09T08:24:02.330Z,3.84
2022-12-09T08:26:31.532Z,3.86
2022-12-09T08:28:59.237Z,3.78
2022-12-09T08:31:27.913Z,3.81
2022-12-09T08:33:56.594Z,3.83
2022-12-09T08:36:28.535Z,3.88
2022-12-09T08:39:00.039Z,3.94
2022-12-09T08:41:36.827Z,3.98
2022-12-09T08:44:14.748Z,3.95
2022-12-09T08:46:45.485Z,4.03
2022-12-09T08:49:13.765Z,4.12
2022-12-09T08:51:41.432Z,4.14
2022-12-09T08:54:08.650Z,4.24
2022-12-09T08:56:36.209Z,4.16
2022-12-09T08:59:04.082Z,4.27
2022-12-09T09:01:34.733Z,4.18
2022-12-09T09:04:08.315Z,4.26
2022-12-09T09:06:40.520Z,4.20
2022-12-09T09:09:10.868Z,4.27
2022-12-09T09:11:38.607Z,4.17
2022-12-09T09:14:09.210Z,4.06
2022-12-09T09:16:39.936Z,4.06
2022-12-09T09:19:08.098Z,4.06
2022-12-09T09:21:35.901Z,4.08
2022-12-09T09:24:08.694Z,4.19
2022-12-09T09:26:38.714Z,4.17
2022-12-09T09:29:06.036Z,4.19
2022-12-09T09:31:33.480Z,4.19
2022-12-09T09:34:01.005Z,4.14
2022-12-09T09:36:28.995Z,4.18
2022-12-09T09:38:58.202Z,4.18
2022-12-09T09:41:31.328Z,4.25
2022-12-09T09:43:59.395Z,4.24
2022-12-09T09:46:48.807Z,4.29
2022-12-09T09:49:26.369Z,4.21
2022-12-09T09:51:54.362Z,4.15
2022-12-09T09:54:22.144Z,4.21
2022-12-09T09:57:02.933Z,4.23
2022-12-09T09:59:54.988Z,4.24
2022-12-09T10:02:50.491Z,4.29
2022-12-09T10:05:40.298Z,4.20
2022-12-09T10:08:30.105Z,4.16
2022-12-09T10:11:27.004Z,4.28
2022-12-09T10:13:57.609Z,4.31
2022-12-09T10:16:44.792Z,4.26
2022-12-09T10:19:33.760Z,4.26
2022-12-09T10:22:12.765Z,4.21
2022-12-09T10:24:47.881Z,4.14
2022-12-09T10:28:12.889Z,4.20
2022-12-09T10:30:44.151Z,4.16
2022-12-09T10:33:14.183Z,4.05
2022-12-09T10:35:42.534Z,4.09
2022-12-09T10:38:12.524Z,4.08
2022-12-09T10:40:46.476Z,4.00
2022-12-09T10:43:44.160Z,4.19
2022-12-09T10:46:21.910Z,4.13
2022-12-09T10:48:50.433Z,4.23
2022-12-09T10:51:26.229Z,4.28
2022-12-09T10:54:00.983Z,4.26
2022-12-09T10:56:34.225Z,4.24
2022-12-09T10:59:13.689Z,4.23
2022-12-09T11:01:59.508Z,4.18
2022-12-09T11:04:28.364Z,4.21
2022-12-09T11:07:05.250Z,4.28
2022-12-09T11:09:35.491Z,4.17
2022-12-09T11:12:06.961Z,4.18
2022-12-09T11:14:38.261Z,4.16
2022-12-09T11:17:18.022Z,4.12
2022-12-09T11:20:12.258Z,4.16
2022-12-09T11:22:43.504Z,4.18
2022-12-09T11:25:32.521Z,4.23
2022-12-09T11:28:06.094Z,4.18
2022-12-09T11:31:27.232Z,4.15
2022-12-09T11:34:05.436Z,4.15
2022-12-09T11:36:44.091Z,4.13
2022-12-09T11:39:17.576Z,4.10
2022-12-09T11:42:16.548Z,4.15
2022-12-09T11:45:02.976Z,4.13
2022-12-09T11:50:33.436Z,4.08
2022-12-09T11:53:12.904Z,4.19
2022-12-09T11:56:10.970Z,4.19
2022-12-09T11:58:56.197Z,4.19
2022-12-09T12:01:56.174Z,4.23
2022-12-09T12:04:33.338Z,4.18
2022-12-09T12:07:09.477Z,4.23
2022-12-09T12:09:42.115Z,4.16
2022-12-09T12:12:18.436Z,4.22
2022-12-09T12:14:45.745Z,4.22
2022-12-09T12:17:21.919Z,4.17
2022-12-09T12:19:53.630Z,4.26
2022-12-09T12:22:58.343Z,4.23
2022-12-09T12:25:37.717Z,4.23
2022-12-09T12:28:32.688Z,4.23
2022-12-09T12:31:18.609Z,4.14
2022-12-09T12:37:15.860Z,4.13
2022-12-09T12:39:47.585Z,4.16
2022-12-09T12:43:04.119Z,4.16
2022-12-09T12:46:02.029Z,4.20
2022-12-09T12:48:41.879Z,4.14
2022-12-09T12:51:30.707Z,4.14
2022-12-09T12:54:03.890Z,4.15
2022-12-09T12:56:42.124Z,4.23
2022-12-09T12:59:33.673Z,4.20
2022-12-09T13:02:19.803Z,4.14
2022-12-09T13:05:00.185Z,4.15
2022-12-09T13:07:39.517Z,4.25
2022-12-09T13:10:14.086Z,4.16
2022-12-09T13:13:01.654Z,4.08
2022-12-09T13:15:34.764Z,4.22
2022-12-09T13:18:16.294Z,4.26
2022-12-09T13:20:52.340Z,4.16
2022-12-09T13:23:41.136Z,4.12
2022-12-09T13:26:51.136Z,4.11
2022-12-09T13:29:30.341Z,4.14
2022-12-09T13:32:14.045Z,4.21
2022-12-09T13:34:46.427Z,4.18
2022-12-09T13:37:43.270Z,4.25
2022-12-09T13:40:31.328Z,4.18
2022-12-09T13:43:04.373Z,4.15
2022-12-09T13:45:35.714Z,4.08
2022-12-09T13:48:16.929Z,4.00
2022-12-09T13:50:59.567Z,3.97
2022-12-09T13:53:34.122Z,3.97
2022-12-09T13:56:01.057Z,3.96
2022-12-09T13:59:10.231Z,3.99
2022-12-09T14:01:51.717Z,3.98
2022-12-09T14:04:23.518Z,3.96
2022-12-09T14:06:57.952Z,4.01
2022-12-09T14:09:33.238Z,4.06
2022-12-09T14:12:03.325Z,4.05
2022-12-09T14:14:30.568Z,4.03
2022-12-09T14:17:00.537Z,4.06
2022-12-09T14:19:29.314Z,4.07
2022-12-09T14:22:20.102Z,4.07
2022-12-09T14:24:55.074Z,4.05
2022-12-09T14:27:32.813Z,4.02
2022-12-09T14:30:21.045Z,4.03
2022-12-09T14:32:51.279Z,4.07
2022-12-09T14:35:32.301Z,4.06
2022-12-09T14:38:20.281Z,4.01
2022-12-09T14:41:00.168Z,4.08
2022-12-09T14:43:53.027Z,4.00
2022-12-09T14:46:35.516Z,3.95
2022-12-09T14:49:23.384Z,3.95
2022-12-09T14:52:23.527Z,3.98
2022-12-09T14:54:53.837Z,3.96
2022-12-09T14:57:41.676Z,3.92
2022-12-09T15:00:30.099Z,3.93
2022-12-09T15:03:30.643Z,4.04
2022-12-09T15:05:58.943Z,4.09
2022-12-09T15:08:31.607Z,4.06
2022-12-09T15:11:02.390Z,4.08
2022-12-09T15:13:30.749Z,4.11
2022-12-09T15:15:58.404Z,4.12
2022-12-09T15:18:26.852Z,4.11
2022-12-09T15:20:59.008Z,4.13
2022-12-09T15:23:34.564Z,4.12
2022-12-09T15:26:19.570Z,4.06
2022-12-09T15:28:51.783Z,4.05
2022-12-09T15:31:27.789Z,3.99
2022-12-09T15:33:57.755Z,4.00
2022-12-09T15:36:34.060Z,4.00
2022-12-09T15:39:19.722Z,4.10
2022-12-09T15:42:07.461Z,4.14
2022-12-09T15:44:44.349Z,4.09
2022-12-09T15:47:18.647Z,4.14
2022-12-09T15:50:08.481Z,4.28
2022-12-09T15:52:44.088Z,4.30
2022-12-09T15:55:14.997Z,4.43
2022-12-09T15:57:42.968Z,4.33
2022-12-09T16:00:11.266Z,4.42
2022-12-09T16:02:40.043Z,4.32
2022-12-09T16:05:09.975Z,4.34
2022-12-09T16:07:37.615Z,4.25
2022-12-09T16:10:11.262Z,4.29
2022-12-09T16:12:40.472Z,4.29
2022-12-09T16:15:12.272Z,4.25
2022-12-09T16:17:55.638Z,4.26
2022-12-09T16:20:31.755Z,4.21
2022-12-09T16:23:00.541Z,4.20
2022-12-09T16:25:35.399Z,4.17
2022-12-09T16:28:05.432Z,4.19
2022-12-09T16:30:45.547Z,4.13
2022-12-09T16:33:18.229Z,4.20
2022-12-09T16:35:56.883Z,4.16
2022-12-09T16:38:24.510Z,4.17
2022-12-09T16:40:51.704Z,4.12
2022-12-09T16:43:20.762Z,4.16
2022-12-09T16:45:59.661Z,4.26
2022-12-09T16:48:29.337Z,4.29
2022-12-09T16:51:18.595Z,4.32
2022-12-09T16:53:49.902Z,4.34
2022-12-09T16:56:23.178Z,4.33
2022-12-09T16:58:51.356Z,4.33
2022-12-09T17:01:20.764Z,4.34
2022-12-09T17:03:53.682Z,4.31
2022-12-09T17:06:21.028Z,4.36
2022-12-09T17:08:48.247Z,4.42
2022-12-09T17:11:16.914Z,4.53
2022-12-09T17:13:44.733Z,4.59
2022-12-09T17:16:11.768Z,4.58
2022-12-09T17:18:39.531Z,4.62
2022-12-09T17:21:12.902Z,4.60
2022-12-09T17:23:41.321Z,4.62
2022-12-09T17:26:14.932Z,4.62
2022-12-09T17:28:43.312Z,4.65
2022-12-09T17:31:14.387Z,4.74
2022-12-09T17:33:43.776Z,4.77
2022-12-09T17:36:15.324Z,4.83
2022-12-09T17:38:42.655Z,4.74
2022-12-09T17:41:18.345Z,4.81
2022-12-09T17:43:45.739Z,4.84
2022-12-09T17:46:13.215Z,4.73
2022-12-09T17:48:41.845Z,4.78
2022-12-09T17:51:12.044Z,4.85
2022-12-09T17:53:41.113Z,4.98
2022-12-09T17:56:22.028Z,5.04
2022-12-09T17:59:02.710Z,5.06
2022-12-09T18:01:30.397Z,5.09
2022-12-09T18:04:02.892Z,5.07
2022-12-09T18:06:34.381Z,5.11
2022-12-09T18:09:04.568Z,5.17
2022-12-09T18:11:31.922Z,5.28
2022-12-09T18:13:59.239Z,5.23
2022-12-09T18:16:26.771Z,5.19
2022-12-09T18:18:54.025Z,5.16
2022-12-09T18:21:23.667Z,5.14
2022-12-09T18:23:51.055Z,5.17
2022-12-09T18:26:19.172Z,5.23
2022-12-09T18:28:46.521Z,5.21
2022-12-09T18:31:17.168Z,5.22
2022-12-09T18:33:44.724Z,5.22
2022-12-09T18:36:14.980Z,5.28
2022-12-09T18:38:42.686Z,5.34
2022-12-09T18:41:18.796Z,5.25
2022-12-09T18:43:48.128Z,5.18
2022-12-09T18:46:25.474Z,5.22
2022-12-09T18:49:02.035Z,5.19
2022-12-09T18:51:29.865Z,5.25
2022-12-09T18:53:58.423Z,5.25
2022-12-09T18:56:26.535Z,5.33
2022-12-09T18:59:09.969Z,5.22
2022-12-09T19:01:41.215Z,5.28
2022-12-09T19:04:34.489Z,5.30
2022-12-09T19:07:01.815Z,5.28
2022-12-09T19:09:33.429Z,5.34
2022-12-09T19:12:23.136Z,5.35
2022-12-09T19:14:49.999Z,5.46
2022-12-09T19:17:18.740Z,5.40
2022-12-09T19:19:47.312Z,5.41
2022-12-09T19:22:14.786Z,5.46
2022-12-09T19:24:43.424Z,5.33
2022-12-09T19:27:10.693Z,5.39
2022-12-09T19:29:39.400Z,5.41
2022-12-09T19:32:23.652Z,5.40
2022-12-09T19:34:53.788Z,5.45
2022-12-09T19:37:20.809Z,5.45
2022-12-09T19:39:51.023Z,5.48
2022-12-09T19:42:19.255Z,5.54
2022-12-09T19:45:06.471Z,5.47
2022-12-09T19:47:35.519Z,5.60
2022-12-09T19:50:02.513Z,5.61
2022-12-09T19:52:29.507Z,5.66
2022-12-09T19:54:56.834Z,5.59
2022-12-09T19:57:23.867Z,5.61
2022-12-09T19:59:50.932Z,5.56
2022-12-09T20:02:18.242Z,5.61
2022-12-09T20:04:49.874Z,5.59
2022-12-09T20:07:17.717Z,5.64
2022-12-09T20:09:44.706Z,5.76
2022-12-09T20:12:12.047Z,5.69
2022-12-09T20:14:39.858Z,5.72
2022-12-09T20:17:07.899Z,5.72
2022-12-09T20:19:36.699Z,5.71
2022-12-09T20:22:04.208Z,5.74
2022-12-09T20:24:31.324Z,5.80
2022-12-09T20:26:58.706Z,5.92
2022-12-09T20:29:25.701Z,5.87
2022-12-09T20:31:52.984Z,5.81
2022-12-09T20:34:20.426Z,5.72
2022-12-09T20:36:48.542Z,5.85
2022-12-09T20:39:20.691Z,5.84
2022-12-09T20:41:48.924Z,5.96
2022-12-09T20:44:17.396Z,5.92
2022-12-09T20:46:47.362Z,5.89
2022-12-09T20:49:14.991Z,5.88
2022-12-09T20:51:45.183Z,5.83
2022-12-09T20:54:13.447Z,5.79
2022-12-09T20:56:40.985Z,5.85
2022-12-09T20:59:10.037Z,5.89
2022-12-09T21:01:37.886Z,5.84
2022-12-09T21:04:06.445Z,5.81
2022-12-09T21:06:37.881Z,6.05
2022-12-09T21:09:11.369Z,6.06
2022-12-09T21:11:39.078Z,6.14
2022-12-09T21:14:09.585Z,6.31
2022-12-09T21:16:41.769Z,6.37
2022-12-09T21:19:12.670Z,6.44
2022-12-09T21:21:41.557Z,6.54
2022-12-09T21:24:13.055Z,6.57
2022-12-09T21:26:40.928Z,6.64
2022-12-09T21:29:09.691Z,6.65
2022-12-09T21:31:38.548Z,6.65
2022-12-09T21:34:06.986Z,6.71
2022-12-09T21:36:37.063Z,6.75
2022-12-09T21:39:05.617Z,6.71
2022-12-09T21:41:34.445Z,6.62
2022-12-09T21:44:02.750Z,6.59
2022-12-09T21:46:32.476Z,6.65
2022-12-09T21:49:03.875Z,6.68
2022-12-09T21:51:32.204Z,6.66
2022-12-09T21:53:59.615Z,6.64
2022-12-09T21:56:30.287Z,6.71
2022-12-09T21:58:58.860Z,6.68
2022-12-09T22:01:34.429Z,6.64
2022-12-09T22:04:04.593Z,6.69
2022-12-09T22:06:31.745Z,6.69
2022-12-09T22:09:00.309Z,6.70
2022-12-09T22:11:30.050Z,6.66
2022-12-09T22:13:58.745Z,6.67
2022-12-09T22:16:28.882Z,6.67
2022-12-09T22:18:58.470Z,6.65
2022-12-09T22:21:28.861Z,6.65
2022-12-09T22:23:59.455Z,6.66
2022-12-09T22:26:27.212Z,6.65
2022-12-09T22:28:54.358Z,6.65
2022-12-09T22:31:30.890Z,6.61
2022-12-09T22:34:05.950Z,6.60
2022-12-09T22:36:34.614Z,6.69
2022-12-09T22:39:01.620Z,6.65
2022-12-09T22:41:29.896Z,6.64
2022-12-09T22:43:57.895Z,6.67
2022-12-09T22:46:27.966Z,6.69
2022-12-09T22:48:57.217Z,6.70
2022-12-09T22:51:27.037Z,6.77
2022-12-09T22:53:55.649Z,6.82
2022-12-09T22:56:23.889Z,6.84
2022-12-09T22:58:51.857Z,6.90
2022-12-09T23:01:27.773Z,6.84
2022-12-09T23:03:56.409Z,6.77
2022-12-09T23:06:24.500Z,6.75
2022-12-09T23:08:52.111Z,6.76
2022-12-09T23:11:24.944Z,6.74
2022-12-09T23:13:53.132Z,6.76
2022-12-09T23:16:23.274Z,6.77
2022-12-09T23:18:51.616Z,6.82
2022-12-09T23:21:22.880Z,6.71
2022-12-09T23:23:54.907Z,6.69
2022-12-09T23:26:23.544Z,6.67
2022-12-09T23:28:52.553Z,6.67
2022-12-09T23:31:23.054Z,6.66
2022-12-09T23:33:52.206Z,6.65
2022-12-09T23:36:31.307Z,6.63
2022-12-09T23:38:59.823Z,6.63
2022-12-09T23:41:27.710Z,6.63
2022-12-09T23:43:55.166Z,6.67
2022-12-09T23:46:26.885Z,6.67
2022-12-09T23:48:56.240Z,6.65
2022-12-09T23:51:25.212Z,6.69
2022-12-09T23:53:55.401Z,6.71
2022-12-09T23:56:24.647Z,6.70
2022-12-09T23:59:00.253Z,6.74
